createdAt,value
2018-07-23T00:02:25.755Z,72.84
2018-07-23T00:04:54.504Z,73.43
2018-07-23T00:07:23.242Z,73.28
2018-07-23T00:09:51.920Z,73.25
2018-07-23T00:12:20.607Z,73.29
2018-07-23T00:14:49.292Z,73.13
2018-07-23T00:17:18.015Z,73.59
2018-07-23T00:19:46.703Z,73.69
2018-07-23T00:22:15.402Z,74.18
2018-07-23T00:24:44.511Z,74.29
2018-07-23T00:27:13.316Z,74.23
2018-07-23T00:29:42.059Z,74.37
2018-07-23T00:32:10.795Z,74.29
2018-07-23T00:34:39.556Z,74.27
2018-07-23T00:37:08.264Z,74.59
2018-07-23T00:39:36.951Z,75.13
2018-07-23T00:42:05.671Z,75.10
2018-07-23T00:44:34.475Z,74.81
2018-07-23T00:47:03.175Z,75.60
2018-07-23T00:49:31.899Z,75.73
2018-07-23T00:52:00.640Z,75.35
2018-07-23T00:54:29.346Z,75.90
2018-07-23T00:56:58.024Z,76.29
2018-07-23T00:59:26.737Z,76.48
2018-07-23T01:01:55.395Z,76.39
2018-07-23T01:04:24.123Z,76.53
2018-07-23T01:06:52.920Z,76.39
2018-07-23T01:09:21.708Z,76.50
2018-07-23T01:11:50.431Z,76.73
2018-07-23T01:14:19.151Z,76.87
2018-07-23T01:16:47.826Z,76.98
2018-07-23T01:19:16.589Z,77.07
2018-07-23T01:21:45.317Z,76.84
2018-07-23T01:24:14.083Z,76.94
2018-07-23T01:26:42.912Z,76.73
2018-07-23T01:29:11.646Z,77.45
2018-07-23T01:31:40.570Z,77.86
2018-07-23T01:34:09.326Z,77.77
2018-07-23T01:36:38.020Z,78.10
2018-07-23T01:39:07.976Z,78.17
2018-07-23T01:41:36.646Z,78.26
2018-07-23T01:44:05.352Z,77.91
2018-07-23T01:46:34.087Z,77.75
2018-07-23T01:49:02.856Z,78.19
2018-07-23T01:51:31.520Z,78.33
2018-07-23T01:54:00.252Z,78.34
2018-07-23T01:56:28.939Z,78.38
2018-07-23T01:58:57.646Z,78.14
2018-07-23T02:01:26.336Z,78.83
2018-07-23T02:03:55.037Z,78.20
2018-07-23T02:06:23.687Z,78.21
2018-07-23T02:08:52.391Z,78.02
2018-07-23T02:11:21.123Z,78.43
2018-07-23T02:13:49.819Z,78.61
2018-07-23T02:16:18.478Z,79.22
2018-07-23T02:18:47.135Z,79.20
2018-07-23T02:21:15.848Z,78.68
2018-07-23T02:23:44.555Z,78.77
2018-07-23T02:26:13.769Z,78.79
2018-07-23T02:28:42.486Z,79.00
2018-07-23T02:31:11.169Z,78.80
2018-07-23T02:33:39.836Z,79.34
2018-07-23T02:36:08.545Z,79.60
2018-07-23T02:38:37.209Z,79.60
2018-07-23T02:41:06.233Z,79.61
2018-07-23T02:43:34.959Z,79.48
2018-07-23T02:46:03.792Z,79.89
2018-07-23T02:48:38.123Z,80.14
2018-07-23T02:51:06.865Z,80.99
2018-07-23T02:53:35.591Z,81.38
2018-07-23T02:56:04.312Z,80.94
2018-07-23T02:58:33.061Z,81.54
2018-07-23T03:01:01.926Z,81.68
2018-07-23T03:03:30.688Z,82.83
2018-07-23T03:05:59.499Z,83.01
2018-07-23T03:08:28.229Z,82.79
2018-07-23T03:10:56.974Z,82.27
2018-07-23T03:13:25.748Z,83.02
2018-07-23T03:15:54.490Z,83.43
2018-07-23T03:18:23.287Z,83.47
2018-07-23T03:20:52.069Z,82.75
2018-07-23T03:23:20.790Z,83.04
2018-07-23T03:25:49.537Z,83.37
2018-07-23T03:28:18.228Z,83.16
2018-07-23T03:30:47.061Z,83.10
2018-07-23T03:33:15.744Z,83.18
2018-07-23T03:35:44.509Z,83.28
2018-07-23T03:38:13.276Z,83.12
2018-07-23T03:40:42.089Z,82.97
2018-07-23T03:43:10.961Z,83.29
2018-07-23T03:45:39.684Z,83.00
2018-07-23T03:48:08.412Z,82.29
2018-07-23T03:50:37.191Z,82.15
2018-07-23T03:53:06.464Z,82.29
2018-07-23T03:55:35.225Z,82.35
2018-07-23T03:58:03.964Z,81.87
2018-07-23T04:00:32.785Z,81.68
2018-07-23T04:03:01.604Z,81.83
2018-07-23T04:05:30.349Z,81.73
2018-07-23T04:07:59.061Z,81.60
2018-07-23T04:10:27.758Z,81.70
2018-07-23T04:12:56.461Z,81.22
2018-07-23T04:15:25.232Z,80.87
2018-07-23T04:17:59.184Z,81.48
2018-07-23T04:20:27.891Z,81.54
2018-07-23T04:22:56.657Z,81.07
2018-07-23T04:25:25.604Z,80.99
2018-07-23T04:27:54.826Z,80.92
2018-07-23T04:30:23.646Z,81.62
2018-07-23T04:32:52.429Z,81.37
2018-07-23T04:35:21.113Z,80.51
2018-07-23T04:37:49.890Z,80.60
2018-07-23T04:40:18.608Z,80.82
2018-07-23T04:42:47.325Z,80.06
2018-07-23T04:45:16.074Z,79.19
2018-07-23T04:47:44.941Z,79.41
2018-07-23T04:50:13.703Z,79.13
2018-07-23T04:52:42.565Z,78.39
2018-07-23T04:55:11.234Z,78.55
2018-07-23T04:57:39.996Z,78.13
2018-07-23T05:00:08.741Z,77.86
2018-07-23T05:02:37.426Z,78.46
2018-07-23T05:05:06.123Z,77.77
2018-07-23T05:07:34.771Z,77.66
2018-07-23T05:10:03.495Z,77.60
2018-07-23T05:12:32.259Z,77.95
2018-07-23T05:15:00.993Z,77.68
2018-07-23T05:17:29.716Z,77.79
2018-07-23T05:19:58.490Z,77.67
2018-07-23T05:22:27.288Z,78.02
2018-07-23T05:24:56.048Z,77.86
2018-07-23T05:27:24.771Z,77.94
2018-07-23T05:29:53.477Z,77.72
2018-07-23T05:32:22.180Z,78.00
2018-07-23T05:34:50.931Z,77.89
2018-07-23T05:37:19.698Z,77.88
2018-07-23T05:39:48.396Z,77.18
2018-07-23T05:42:17.149Z,77.52
2018-07-23T05:44:45.913Z,76.61
2018-07-23T05:47:14.645Z,76.04
2018-07-23T05:49:43.509Z,75.45
2018-07-23T05:52:12.201Z,75.00
2018-07-23T05:54:40.936Z,74.39
2018-07-23T05:57:09.749Z,74.51
2018-07-23T05:59:38.512Z,74.15
2018-07-23T06:02:07.264Z,74.62
2018-07-23T06:04:35.944Z,74.50
2018-07-23T06:07:04.817Z,73.85
2018-07-23T06:09:33.465Z,74.01
2018-07-23T06:12:02.267Z,74.70
2018-07-23T06:14:30.982Z,74.79
2018-07-23T06:17:00.042Z,75.66
2018-07-23T06:19:28.792Z,75.36
2018-07-23T06:21:57.676Z,75.07
2018-07-23T06:24:26.443Z,75.50
2018-07-23T06:26:55.242Z,74.98
2018-07-23T06:29:24.007Z,74.69
2018-07-23T06:31:52.743Z,73.56
2018-07-23T06:34:21.528Z,73.82
2018-07-23T06:36:50.322Z,73.04
2018-07-23T06:39:20.221Z,73.14
2018-07-23T06:41:48.936Z,73.11
2018-07-23T06:44:17.664Z,73.72
2018-07-23T06:46:46.375Z,71.99
2018-07-23T06:49:15.158Z,72.78
2018-07-23T06:51:43.941Z,73.18
2018-07-23T06:54:12.743Z,72.81
2018-07-23T06:56:41.460Z,72.00
2018-07-23T06:59:10.355Z,71.29
2018-07-23T07:01:39.137Z,69.79
2018-07-23T07:04:07.889Z,69.32
2018-07-23T07:06:36.629Z,70.15
2018-07-23T07:09:07.388Z,70.87
2018-07-23T07:11:36.117Z,70.62
2018-07-23T07:14:04.918Z,69.91
2018-07-23T07:16:33.617Z,68.60
2018-07-23T07:19:02.436Z,65.15
2018-07-23T07:21:31.158Z,64.45
2018-07-23T07:23:59.887Z,64.12
2018-07-23T07:26:28.632Z,62.68
2018-07-23T07:28:57.333Z,61.55
2018-07-23T07:31:26.139Z,61.18
2018-07-23T07:33:54.827Z,61.55
2018-07-23T07:36:23.513Z,60.22
2018-07-23T07:38:52.220Z,59.72
2018-07-23T07:41:20.880Z,59.32
2018-07-23T07:43:49.602Z,59.73
2018-07-23T07:46:18.527Z,58.88
2018-07-23T07:48:47.310Z,58.91
2018-07-23T07:51:16.016Z,59.00
2018-07-23T07:53:44.849Z,58.10
2018-07-23T07:56:13.653Z,58.11
2018-07-23T07:58:42.344Z,58.94
2018-07-23T08:01:11.105Z,58.64
2018-07-23T08:03:39.748Z,57.08
2018-07-23T08:06:08.689Z,57.60
2018-07-23T08:08:37.436Z,56.90
2018-07-23T08:11:06.129Z,58.51
2018-07-23T08:13:34.851Z,59.12
2018-07-23T08:16:03.557Z,59.79
2018-07-23T08:18:32.218Z,57.79
2018-07-23T08:21:01.068Z,57.60
2018-07-23T08:23:29.873Z,55.89
2018-07-23T08:25:58.647Z,57.03
2018-07-23T08:28:27.473Z,56.84
2018-07-23T08:30:56.180Z,56.09
2018-07-23T08:33:24.945Z,55.29
2018-07-23T08:35:53.623Z,54.50
2018-07-23T08:38:22.340Z,53.28
2018-07-23T08:40:51.224Z,53.26
2018-07-23T08:43:19.972Z,53.89
2018-07-23T08:45:48.741Z,53.84
2018-07-23T08:48:17.465Z,51.64
2018-07-23T08:50:46.209Z,51.98
2018-07-23T08:53:14.944Z,52.05
2018-07-23T08:55:43.647Z,52.19
2018-07-23T08:58:12.407Z,53.19
2018-07-23T09:00:41.203Z,52.90
2018-07-23T09:03:09.891Z,52.66
2018-07-23T09:05:38.571Z,52.48
2018-07-23T09:08:07.257Z,52.57
2018-07-23T09:10:35.965Z,51.62
2018-07-23T09:13:04.863Z,52.03
2018-07-23T09:15:33.697Z,50.34
2018-07-23T09:18:02.411Z,49.81
2018-07-23T09:20:31.136Z,49.45
2018-07-23T09:22:59.950Z,48.44
2018-07-23T09:25:34.055Z,46.98
2018-07-23T09:28:02.804Z,44.77
2018-07-23T09:30:36.923Z,47.04
2018-07-23T09:33:05.687Z,47.10
2018-07-23T09:35:34.475Z,46.70
2018-07-23T09:38:03.285Z,49.12
2018-07-23T09:40:32.094Z,49.49
2018-07-23T09:43:00.835Z,48.04
2018-07-23T09:45:29.725Z,48.87
2018-07-23T09:47:58.527Z,48.03
2018-07-23T09:50:27.350Z,48.80
2018-07-23T09:52:56.143Z,48.36
2018-07-23T09:55:25.117Z,47.87
2018-07-23T09:57:53.806Z,47.63
2018-07-23T10:00:27.940Z,48.31
2018-07-23T10:02:56.850Z,47.39
2018-07-23T10:05:25.580Z,47.26
2018-07-23T10:07:54.284Z,46.91
2018-07-23T10:10:23.111Z,49.00
2018-07-23T10:12:51.837Z,48.40
2018-07-23T10:15:20.560Z,50.65
2018-07-23T10:17:49.320Z,48.41
2018-07-23T10:20:18.104Z,47.60
2018-07-23T10:22:46.931Z,46.18
2018-07-23T10:25:15.583Z,47.04
2018-07-23T10:27:44.383Z,46.37
2018-07-23T10:30:13.213Z,47.25
2018-07-23T10:32:41.918Z,47.02
2018-07-23T10:35:10.772Z,46.72
2018-07-23T10:37:39.510Z,47.23
2018-07-23T10:40:08.264Z,48.06
2018-07-23T10:42:36.979Z,50.04
2018-07-23T10:45:05.911Z,46.87
2018-07-23T10:47:34.605Z,44.66
2018-07-23T10:50:03.346Z,45.30
2018-07-23T10:52:32.112Z,45.98
2018-07-23T10:55:01.845Z,47.95
2018-07-23T10:57:30.769Z,48.47
2018-07-23T10:59:59.589Z,46.84
2018-07-23T11:02:28.368Z,46.22
2018-07-23T11:04:57.085Z,44.42
2018-07-23T11:07:25.871Z,42.71
2018-07-23T11:09:54.559Z,44.04
2018-07-23T11:12:23.275Z,42.36
2018-07-23T11:14:52.461Z,42.37
2018-07-23T11:17:21.137Z,42.05
2018-07-23T11:19:49.926Z,40.96
2018-07-23T11:22:18.688Z,40.34
2018-07-23T11:24:47.425Z,41.50
2018-07-23T11:27:16.083Z,41.84
2018-07-23T11:29:44.811Z,39.25
2018-07-23T11:32:13.554Z,40.38
2018-07-23T11:34:42.244Z,42.19
2018-07-23T11:37:10.965Z,44.38
2018-07-23T11:39:39.711Z,44.56
2018-07-23T11:42:08.456Z,45.12
2018-07-23T11:44:37.191Z,44.51
2018-07-23T11:47:05.959Z,43.55
2018-07-23T11:49:34.661Z,44.11
2018-07-23T11:52:03.351Z,44.82
2018-07-23T11:54:32.106Z,46.30
2018-07-23T11:57:00.939Z,46.26
2018-07-23T11:59:29.770Z,45.60
2018-07-23T12:01:58.916Z,46.88
2018-07-23T12:04:27.687Z,45.24
2018-07-23T12:06:56.460Z,43.66
2018-07-23T12:09:25.284Z,45.53
2018-07-23T12:11:54.068Z,44.96
2018-07-23T12:14:22.785Z,44.36
2018-07-23T12:16:51.648Z,45.56
2018-07-23T12:19:20.345Z,46.65
2018-07-23T12:21:49.252Z,47.55
2018-07-23T12:24:17.968Z,47.86
2018-07-23T12:26:46.697Z,48.59
2018-07-23T12:29:15.446Z,48.70
2018-07-23T12:31:44.168Z,48.35
2018-07-23T12:34:12.970Z,47.98
2018-07-23T12:36:41.867Z,47.45
2018-07-23T12:39:11.819Z,47.78
2018-07-23T12:41:40.912Z,47.57
2018-07-23T12:44:09.969Z,48.15
2018-07-23T12:46:38.795Z,49.02
2018-07-23T12:49:07.863Z,47.78
2018-07-23T12:51:36.542Z,48.76
2018-07-23T12:54:05.315Z,47.98
2018-07-23T12:56:34.077Z,47.45
2018-07-23T12:59:03.091Z,46.81
2018-07-23T13:01:31.855Z,46.33
2018-07-23T13:04:00.659Z,47.35
2018-07-23T13:06:29.319Z,47.55
2018-07-23T13:08:58.014Z,47.84
2018-07-23T13:11:26.733Z,47.68
2018-07-23T13:13:55.514Z,46.33
2018-07-23T13:16:24.269Z,46.75
2018-07-23T13:18:53.041Z,46.03
2018-07-23T13:21:21.704Z,46.97
2018-07-23T13:23:50.498Z,47.55
2018-07-23T13:26:19.185Z,47.11
2018-07-23T13:28:47.926Z,46.30
2018-07-23T13:31:16.800Z,45.83
2018-07-23T13:33:45.584Z,46.46
2018-07-23T13:36:14.269Z,46.25
2018-07-23T13:38:43.024Z,46.14
2018-07-23T13:41:11.970Z,46.16
2018-07-23T13:43:40.689Z,46.56
2018-07-23T13:46:09.380Z,46.59
2018-07-23T13:48:38.127Z,46.59
2018-07-23T13:51:06.848Z,47.05
2018-07-23T13:53:35.560Z,47.39
2018-07-23T13:56:04.268Z,47.23
2018-07-23T13:58:33.077Z,47.64
2018-07-23T14:01:01.862Z,47.62
2018-07-23T14:03:30.719Z,46.99
2018-07-23T14:05:59.411Z,47.10
2018-07-23T14:08:28.171Z,47.84
2018-07-23T14:10:56.880Z,49.79
2018-07-23T14:13:25.603Z,48.76
2018-07-23T14:15:54.306Z,48.61
2018-07-23T14:18:22.989Z,49.02
2018-07-23T14:20:51.862Z,48.68
2018-07-23T14:23:20.571Z,49.27
2018-07-23T14:25:49.309Z,49.32
2018-07-23T14:28:18.116Z,49.71
2018-07-23T14:30:47.070Z,50.88
2018-07-23T14:33:15.798Z,50.60
2018-07-23T14:35:44.536Z,50.71
2018-07-23T14:38:13.302Z,50.08
2018-07-23T14:40:42.036Z,50.52
2018-07-23T14:43:10.748Z,51.13
2018-07-23T14:45:39.604Z,51.42
2018-07-23T14:48:08.389Z,51.14
2018-07-23T14:50:37.116Z,50.98
2018-07-23T14:53:05.837Z,52.44
2018-07-23T14:55:34.682Z,52.64
2018-07-23T14:58:03.403Z,51.21
2018-07-23T15:00:32.233Z,51.82
2018-07-23T15:03:00.949Z,53.01
2018-07-23T15:05:30.027Z,52.86
2018-07-23T15:07:58.859Z,52.06
2018-07-23T15:10:27.544Z,52.06
2018-07-23T15:12:56.382Z,52.79
2018-07-23T15:15:25.138Z,53.41
2018-07-23T15:17:54.079Z,53.47
2018-07-23T15:20:22.816Z,53.73
2018-07-23T15:22:51.585Z,53.94
2018-07-23T15:25:20.456Z,53.98
2018-07-23T15:27:49.243Z,54.25
2018-07-23T15:30:17.932Z,54.31
2018-07-23T15:32:46.712Z,55.04
2018-07-23T15:35:15.513Z,53.69
2018-07-23T15:37:44.257Z,53.36
2018-07-23T15:40:13.088Z,53.96
2018-07-23T15:42:41.831Z,54.31
2018-07-23T15:45:11.603Z,54.62
2018-07-23T15:47:40.224Z,54.00
2018-07-23T15:50:09.257Z,54.21
2018-07-23T15:52:38.397Z,53.71
2018-07-23T15:55:07.184Z,53.70
2018-07-23T15:57:36.001Z,54.33
2018-07-23T16:00:05.392Z,54.12
2018-07-23T16:02:34.329Z,54.01
2018-07-23T16:05:03.127Z,53.70
2018-07-23T16:07:31.902Z,54.13
2018-07-23T16:10:00.685Z,54.73
2018-07-23T16:12:29.441Z,54.86
2018-07-23T16:14:58.365Z,54.96
2018-07-23T16:17:27.184Z,54.02
2018-07-23T16:19:55.964Z,54.81
2018-07-23T16:22:24.907Z,55.76
2018-07-23T16:24:53.964Z,55.33
2018-07-23T16:27:22.750Z,55.50
2018-07-23T16:29:51.532Z,55.65
2018-07-23T16:32:20.258Z,55.12
2018-07-23T16:34:49.154Z,56.15
2018-07-23T16:37:17.885Z,56.40
2018-07-23T16:39:46.564Z,56.90
2018-07-23T16:42:15.306Z,56.61
2018-07-23T16:44:43.993Z,56.56
2018-07-23T16:47:12.856Z,55.96
2018-07-23T16:49:41.668Z,56.47
2018-07-23T16:52:10.495Z,56.28
2018-07-23T16:54:39.304Z,55.89
2018-07-23T16:57:08.227Z,55.89
2018-07-23T16:59:36.985Z,55.57
2018-07-23T17:02:05.874Z,55.52
2018-07-23T17:04:34.609Z,54.52
2018-07-23T17:07:03.288Z,55.15
2018-07-23T17:09:32.079Z,55.02
2018-07-23T17:12:00.793Z,55.60
2018-07-23T17:14:29.510Z,55.73
2018-07-23T17:16:58.312Z,55.99
2018-07-23T17:19:27.066Z,55.88
2018-07-23T17:21:55.865Z,56.18
2018-07-23T17:24:24.574Z,55.81
2018-07-23T17:26:53.296Z,56.02
2018-07-23T17:29:22.138Z,56.52
2018-07-23T17:31:51.064Z,55.51
2018-07-23T17:34:19.812Z,55.93
2018-07-23T17:36:48.747Z,55.69
2018-07-23T17:39:17.484Z,54.99
2018-07-23T17:41:46.333Z,56.05
2018-07-23T17:44:15.088Z,55.45
2018-07-23T17:46:43.782Z,55.42
2018-07-23T17:49:12.712Z,54.07
2018-07-23T17:51:41.428Z,54.54
2018-07-23T17:54:10.192Z,53.83
2018-07-23T17:56:39.148Z,54.91
2018-07-23T17:59:07.876Z,55.29
2018-07-23T18:01:37.138Z,55.58
2018-07-23T18:04:06.036Z,55.55
2018-07-23T18:06:34.748Z,55.57
2018-07-23T18:09:04.349Z,54.86
2018-07-23T18:11:33.360Z,54.99
2018-07-23T18:14:02.172Z,55.60
2018-07-23T18:16:31.253Z,55.36
2018-07-23T18:19:00.121Z,56.01
2018-07-23T18:21:28.868Z,56.18
2018-07-23T18:23:57.721Z,56.56
2018-07-23T18:26:26.515Z,57.35
2018-07-23T18:28:55.287Z,57.04
2018-07-23T18:31:24.597Z,57.31
2018-07-23T18:33:53.429Z,57.45
2018-07-23T18:36:22.169Z,57.74
2018-07-23T18:38:51.218Z,57.72
2018-07-23T18:41:19.989Z,57.24
2018-07-23T18:43:49.418Z,57.18
2018-07-23T18:46:18.184Z,58.01
2018-07-23T18:49:40.326Z,58.11
2018-07-23T18:52:09.120Z,58.21
2018-07-23T18:54:38.051Z,58.56
2018-07-23T18:57:07.874Z,58.40
2018-07-23T18:59:37.000Z,58.62
2018-07-23T19:02:07.863Z,59.04
2018-07-23T19:04:36.779Z,59.17
2018-07-23T19:07:06.804Z,59.53
2018-07-23T19:09:35.582Z,59.68
2018-07-23T19:12:04.432Z,60.02
2018-07-23T19:14:33.259Z,60.56
2018-07-23T19:17:03.133Z,60.72
2018-07-23T19:19:31.967Z,60.68
2018-07-23T19:22:00.776Z,61.19
2018-07-23T19:24:29.644Z,61.55
2018-07-23T19:26:58.355Z,61.89
2018-07-23T19:29:27.328Z,62.01
2018-07-23T19:31:56.135Z,62.76
2018-07-23T19:34:25.105Z,62.34
2018-07-23T19:36:54.259Z,62.49
2018-07-23T19:39:23.369Z,62.65
2018-07-23T19:41:52.302Z,63.56
2018-07-23T19:44:21.178Z,63.90
2018-07-23T19:46:49.971Z,63.24
2018-07-23T19:49:18.705Z,63.52
2018-07-23T19:51:47.441Z,63.56
2018-07-23T19:54:16.404Z,63.34
2018-07-23T19:56:45.170Z,63.23
2018-07-23T19:59:14.166Z,63.26
2018-07-23T20:01:43.086Z,63.32
2018-07-23T20:04:11.904Z,63.53
2018-07-23T20:06:40.911Z,62.73
2018-07-23T20:09:10.664Z,62.82
2018-07-23T20:11:39.384Z,62.62
2018-07-23T20:14:08.220Z,62.50
2018-07-23T20:16:37.161Z,63.28
2018-07-23T20:19:06.021Z,63.18
2018-07-23T20:21:34.861Z,63.46
2018-07-23T20:24:03.777Z,63.18
2018-07-23T20:26:32.724Z,63.69
2018-07-23T20:29:02.003Z,63.66
2018-07-23T20:31:30.845Z,63.96
2018-07-23T20:33:59.676Z,63.90
2018-07-23T20:36:29.234Z,63.83
2018-07-23T20:38:58.321Z,63.48
2018-07-23T20:41:27.141Z,63.11
2018-07-23T20:43:57.017Z,62.94
2018-07-23T20:46:25.930Z,63.29
2018-07-23T20:48:55.019Z,63.13
2018-07-23T20:51:24.073Z,63.17
2018-07-23T20:53:53.232Z,63.55
2018-07-23T20:56:22.621Z,63.71
2018-07-23T20:58:51.886Z,63.83
2018-07-23T21:01:21.054Z,63.89
2018-07-23T21:03:50.022Z,64.36
2018-07-23T21:06:18.970Z,64.80
2018-07-23T21:08:47.939Z,64.85
2018-07-23T21:11:16.865Z,64.91
2018-07-23T21:13:45.831Z,65.18
2018-07-23T21:16:14.770Z,65.87
2018-07-23T21:18:44.105Z,65.93
2018-07-23T21:21:13.124Z,65.93
2018-07-23T21:23:42.272Z,66.14
2018-07-23T21:26:11.045Z,66.49
2018-07-23T21:28:40.102Z,66.55
2018-07-23T21:31:08.886Z,67.02
2018-07-23T21:33:38.189Z,66.73
2018-07-23T21:36:07.122Z,66.77
2018-07-23T21:38:36.058Z,66.61
2018-07-23T21:41:05.017Z,66.54
2018-07-23T21:43:33.880Z,66.38
2018-07-23T21:46:02.874Z,66.19
2018-07-23T21:48:31.682Z,66.61
2018-07-23T21:51:00.447Z,66.96
2018-07-23T21:53:29.656Z,66.62
2018-07-23T21:55:58.700Z,66.70
2018-07-23T21:58:27.427Z,67.04
2018-07-23T22:00:56.675Z,66.98
2018-07-23T22:03:25.429Z,67.51
2018-07-23T22:05:54.239Z,67.26
2018-07-23T22:08:23.274Z,66.88
2018-07-23T22:10:52.074Z,67.31
2018-07-23T22:13:20.808Z,67.76
2018-07-23T22:15:49.548Z,68.38
2018-07-23T22:18:18.326Z,68.54
2018-07-23T22:20:47.097Z,68.28
2018-07-23T22:23:15.992Z,68.00
2018-07-23T22:25:44.816Z,67.51
2018-07-23T22:28:13.673Z,68.26
2018-07-23T22:30:42.897Z,68.81
2018-07-23T22:33:11.653Z,69.25
2018-07-23T22:35:47.322Z,68.75
2018-07-23T22:38:16.269Z,69.13
2018-07-23T22:40:45.085Z,69.21
2018-07-23T22:43:13.974Z,69.13
2018-07-23T22:45:42.822Z,69.20
2018-07-23T22:48:11.814Z,68.93
2018-07-23T22:50:40.805Z,68.79
2018-07-23T22:53:09.637Z,68.76
2018-07-23T22:55:38.389Z,68.36
2018-07-23T22:58:07.105Z,68.31
2018-07-23T23:00:36.003Z,68.67
2018-07-23T23:03:04.861Z,68.72
2018-07-23T23:05:33.594Z,69.02
2018-07-23T23:08:02.368Z,68.92
2018-07-23T23:10:31.096Z,68.93
2018-07-23T23:13:00.972Z,68.42
2018-07-23T23:15:29.704Z,68.55
2018-07-23T23:17:58.462Z,68.34
2018-07-23T23:20:27.368Z,68.49
2018-07-23T23:22:56.153Z,68.67
2018-07-23T23:25:24.923Z,68.57
2018-07-23T23:27:53.672Z,68.68
2018-07-23T23:30:23.166Z,68.38
2018-07-23T23:32:51.909Z,68.22
2018-07-23T23:35:20.765Z,68.39
2018-07-23T23:37:49.554Z,68.03
2018-07-23T23:40:18.551Z,68.25
2018-07-23T23:42:47.557Z,68.25
2018-07-23T23:45:16.439Z,68.92
2018-07-23T23:47:45.330Z,68.24
2018-07-23T23:50:14.244Z,68.33
2018-07-23T23:52:43.019Z,68.91
2018-07-23T23:55:11.820Z,68.44
2018-07-23T23:57:40.579Z,68.41
